Decoded Metar for KHRT (MARY ESTHER in FL, USA) (IATA:HRT) | Meteo·Mobile Aviation Weather
aviador You're here:

KHRT Decoded Metar

MARY ESTHER in FL, USA
Report Time2018-12-16 15:56:00
UTC Time2018-12-16 16:12:21
Flight Rules vfr VFR
Wind360° at 10 kt
W.Decomp.*RWY 36: 10.0 kt HW 0 kt LCW
Visibility9999 m
Phenomena:N/A
Clouds:N/A
Expected CloudBase > 2,400 ft AGL from Temp-Dew spread
CeilingNone
Temp14°C (ISA -1)
Dew Point08°C (67% RH)
AAT9.9°C
QNH1023 hPa
Density Alt-262 ft
Elevation39 ft
Report Wrong Elevation
Raw Report
KHRT 161556Z 36010KT 10SM CLR 14/08 A3022 RMK AO2A SLP235
T01400075 $=

Extra information for KHRT:More info

Metar Taf Metar & Taf Last 4 Metars F.Rules Stats Wind Profile Meteogram Temp Stats Airport Information Weather charts Add Link Nearby VenuesMetar ALERT Operation Metar Decoded Social comments

AIRNAV info for KHRT